sensor_id;sensor_type;location;lat;lon;timestamp;pressure;altitude;pressure_sealevel;temperature;humidity
15487;BME280;7845;53.698;10.078;2023-02-04T00:00:20;108488.50;;;4.68;nan
15487;BME280;7845;53.698;10.078;2023-02-04T00:02:46;108262.94;;;4.67;nan
15487;BME280;7845;53.698;10.078;2023-02-04T00:05:12;108359.25;;;4.82;nan
15487;BME280;7845;53.698;10.078;2023-02-04T00:07:38;108432.03;;;4.96;nan
15487;BME280;7845;53.698;10.078;2023-02-04T00:10:04;108446.31;;;4.69;nan
15487;BME280;7845;53.698;10.078;2023-02-04T00:12:30;108529.19;;;4.69;nan
15487;BME280;7845;53.698;10.078;2023-02-04T00:14:56;108408.06;;;4.61;nan
15487;BME280;7845;53.698;10.078;2023-02-04T00:17:21;108395.44;;;4.39;nan
15487;BME280;7845;53.698;10.078;2023-02-04T00:19:46;108386.66;;;4.26;nan
15487;BME280;7845;53.698;10.078;2023-02-04T00:22:12;108396.66;;;4.17;nan
15487;BME280;7845;53.698;10.078;2023-02-04T00:24:37;108387.53;;;4.14;nan
15487;BME280;7845;53.698;10.078;2023-02-04T00:27:03;108375.25;;;4.00;nan
15487;BME280;7845;53.698;10.078;2023-02-04T00:29:30;108361.66;;;3.96;nan
15487;BME280;7845;53.698;10.078;2023-02-04T00:31:56;108272.75;;;3.77;nan
15487;BME280;7845;53.698;10.078;2023-02-04T00:34:21;108259.28;;;3.85;nan
15487;BME280;7845;53.698;10.078;2023-02-04T00:36:46;108197.22;;;3.67;nan
15487;BME280;7845;53.698;10.078;2023-02-04T00:39:12;108168.28;;;3.69;nan
15487;BME280;7845;53.698;10.078;2023-02-04T00:41:37;108112.91;;;3.62;nan
15487;BME280;7845;53.698;10.078;2023-02-04T00:44:03;108065.50;;;3.56;nan
15487;BME280;7845;53.698;10.078;2023-02-04T00:46:28;108105.66;;;3.59;nan
15487;BME280;7845;53.698;10.078;2023-02-04T00:48:53;108056.06;;;3.74;nan
15487;BME280;7845;53.698;10.078;2023-02-04T00:51:19;108038.13;;;3.51;nan
15487;BME280;7845;53.698;10.078;2023-02-04T00:53:44;107938.97;;;3.50;nan
15487;BME280;7845;53.698;10.078;2023-02-04T00:56:10;107922.75;;;3.51;nan
15487;BME280;7845;53.698;10.078;2023-02-04T00:58:36;107910.44;;;3.68;nan
15487;BME280;7845;53.698;10.078;2023-02-04T01:01:02;107913.56;;;3.78;nan
15487;BME280;7845;53.698;10.078;2023-02-04T01:03:32;107950.38;;;3.96;nan
15487;BME280;7845;53.698;10.078;2023-02-04T01:05:57;107959.66;;;4.01;nan
15487;BME280;7845;53.698;10.078;2023-02-04T01:08:23;107929.28;;;3.92;nan
15487;BME280;7845;53.698;10.078;2023-02-04T01:10:48;107931.56;;;3.97;nan
15487;BME280;7845;53.698;10.078;2023-02-04T01:13:13;107893.47;;;3.96;nan
15487;BME280;7845;53.698;10.078;2023-02-04T01:15:39;107860.06;;;3.97;nan
15487;BME280;7845;53.698;10.078;2023-02-04T01:18:04;107844.91;;;4.13;nan
15487;BME280;7845;53.698;10.078;2023-02-04T01:20:29;107888.44;;;4.22;nan
15487;BME280;7845;53.698;10.078;2023-02-04T01:22:55;107939.06;;;4.20;nan
15487;BME280;7845;53.698;10.078;2023-02-04T01:25:20;108003.03;;;3.96;nan
15487;BME280;7845;53.698;10.078;2023-02-04T01:27:46;107992.50;;;3.82;nan
15487;BME280;7845;53.698;10.078;2023-02-04T01:30:13;107980.78;;;3.78;nan
15487;BME280;7845;53.698;10.078;2023-02-04T01:32:38;108005.72;;;3.90;nan
15487;BME280;7845;53.698;10.078;2023-02-04T01:35:04;108005.91;;;3.92;nan
15487;BME280;7845;53.698;10.078;2023-02-04T01:37:30;107998.25;;;3.86;nan
15487;BME280;7845;53.698;10.078;2023-02-04T01:39:55;108020.00;;;3.94;nan
15487;BME280;7845;53.698;10.078;2023-02-04T01:42:20;108029.63;;;3.95;nan
15487;BME280;7845;53.698;10.078;2023-02-04T01:44:46;108019.28;;;4.20;nan
15487;BME280;7845;53.698;10.078;2023-02-04T01:47:12;108014.53;;;4.23;nan
15487;BME280;7845;53.698;10.078;2023-02-04T01:49:37;107964.97;;;4.20;nan
15487;BME280;7845;53.698;10.078;2023-02-04T01:52:03;107902.41;;;4.30;nan
15487;BME280;7845;53.698;10.078;2023-02-04T01:54:29;107885.75;;;4.28;nan
15487;BME280;7845;53.698;10.078;2023-02-04T01:56:55;107878.09;;;4.22;nan
15487;BME280;7845;53.698;10.078;2023-02-04T01:59:21;107932.81;;;4.51;nan
15487;BME280;7845;53.698;10.078;2023-02-04T02:01:49;107947.06;;;4.54;nan
15487;BME280;7845;53.698;10.078;2023-02-04T02:04:17;107961.75;;;4.61;nan
15487;BME280;7845;53.698;10.078;2023-02-04T02:06:46;107955.50;;;4.33;nan
15487;BME280;7845;53.698;10.078;2023-02-04T02:09:13;107970.16;;;4.53;nan
15487;BME280;7845;53.698;10.078;2023-02-04T02:11:39;107968.22;;;4.44;nan
15487;BME280;7845;53.698;10.078;2023-02-04T02:14:05;107935.53;;;4.32;nan
15487;BME280;7845;53.698;10.078;2023-02-04T02:16:30;107913.19;;;4.20;nan
15487;BME280;7845;53.698;10.078;2023-02-04T02:18:56;107779.91;;;3.84;nan
15487;BME280;7845;53.698;10.078;2023-02-04T02:21:34;107673.78;;;3.58;nan
15487;BME280;7845;53.698;10.078;2023-02-04T02:24:23;107539.88;;;3.35;nan
15487;BME280;7845;53.698;10.078;2023-02-04T02:26:49;107415.50;;;3.13;nan
15487;BME280;7845;53.698;10.078;2023-02-04T02:29:15;107330.53;;;3.02;nan
15487;BME280;7845;53.698;10.078;2023-02-04T02:31:41;107227.22;;;2.95;nan
15487;BME280;7845;53.698;10.078;2023-02-04T02:34:06;107130.69;;;2.80;nan
15487;BME280;7845;53.698;10.078;2023-02-04T02:36:31;107022.81;;;2.70;nan
15487;BME280;7845;53.698;10.078;2023-02-04T02:38:57;106916.59;;;2.60;nan
15487;BME280;7845;53.698;10.078;2023-02-04T02:41:24;106849.72;;;2.62;nan
15487;BME280;7845;53.698;10.078;2023-02-04T02:43:49;106785.38;;;2.56;nan
15487;BME280;7845;53.698;10.078;2023-02-04T02:46:14;106691.41;;;2.47;nan
15487;BME280;7845;53.698;10.078;2023-02-04T02:48:40;106621.59;;;2.39;nan
15487;BME280;7845;53.698;10.078;2023-02-04T02:51:05;106575.91;;;2.38;nan
15487;BME280;7845;53.698;10.078;2023-02-04T02:53:30;106519.72;;;2.35;nan
15487;BME280;7845;53.698;10.078;2023-02-04T02:55:56;106487.13;;;2.29;nan
15487;BME280;7845;53.698;10.078;2023-02-04T02:58:27;106455.84;;;2.18;nan
15487;BME280;7845;53.698;10.078;2023-02-04T03:00:55;106415.91;;;2.15;nan
15487;BME280;7845;53.698;10.078;2023-02-04T03:03:25;106371.16;;;2.14;nan
15487;BME280;7845;53.698;10.078;2023-02-04T03:05:54;106326.28;;;2.05;nan
15487;BME280;7845;53.698;10.078;2023-02-04T03:08:21;106265.53;;;2.00;nan
15487;BME280;7845;53.698;10.078;2023-02-04T03:10:46;106237.00;;;1.99;nan
15487;BME280;7845;53.698;10.078;2023-02-04T03:13:14;106209.59;;;1.99;nan
15487;BME280;7845;53.698;10.078;2023-02-04T03:15:42;106200.72;;;2.04;nan
15487;BME280;7845;53.698;10.078;2023-02-04T03:18:09;106178.09;;;2.02;nan
15487;BME280;7845;53.698;10.078;2023-02-04T03:20:35;106133.03;;;1.91;nan
15487;BME280;7845;53.698;10.078;2023-02-04T03:23:01;106072.34;;;1.86;nan
15487;BME280;7845;53.698;10.078;2023-02-04T03:25:26;106058.75;;;1.87;nan
15487;BME280;7845;53.698;10.078;2023-02-04T03:27:53;106041.50;;;1.79;nan
15487;BME280;7845;53.698;10.078;2023-02-04T03:30:20;106055.44;;;1.58;nan
15487;BME280;7845;53.698;10.078;2023-02-04T03:32:46;106096.81;;;1.60;nan
15487;BME280;7845;53.698;10.078;2023-02-04T03:35:11;106116.47;;;1.66;nan
15487;BME280;7845;53.698;10.078;2023-02-04T03:37:36;106131.50;;;1.78;nan
15487;BME280;7845;53.698;10.078;2023-02-04T03:40:02;106164.13;;;2.00;nan
15487;BME280;7845;53.698;10.078;2023-02-04T03:42:27;106188.06;;;2.21;nan
15487;BME280;7845;53.698;10.078;2023-02-04T03:44:52;106200.31;;;2.38;nan
15487;BME280;7845;53.698;10.078;2023-02-04T03:47:18;106213.31;;;2.47;nan
15487;BME280;7845;53.698;10.078;2023-02-04T03:49:43;106226.53;;;2.72;nan
15487;BME280;7845;53.698;10.078;2023-02-04T03:52:08;106252.03;;;2.92;nan
15487;BME280;7845;53.698;10.078;2023-02-04T03:54:33;106252.00;;;2.69;nan
15487;BME280;7845;53.698;10.078;2023-02-04T03:56:59;106281.81;;;2.52;nan
15487;BME280;7845;53.698;10.078;2023-02-04T03:59:24;106324.78;;;2.44;nan
15487;BME280;7845;53.698;10.078;2023-02-04T04:01:49;106343.34;;;2.49;nan
15487;BME280;7845;53.698;10.078;2023-02-04T04:04:16;106338.03;;;2.47;nan
15487;BME280;7845;53.698;10.078;2023-02-04T04:06:42;106334.78;;;2.64;nan
15487;BME280;7845;53.698;10.078;2023-02-04T04:09:07;106413.97;;;3.02;nan
15487;BME280;7845;53.698;10.078;2023-02-04T04:11:32;106410.50;;;3.01;nan
15487;BME280;7845;53.698;10.078;2023-02-04T04:13:58;106433.91;;;3.03;nan
15487;BME280;7845;53.698;10.078;2023-02-04T04:16:23;106489.91;;;3.11;nan
15487;BME280;7845;53.698;10.078;2023-02-04T04:18:48;106501.38;;;3.06;nan
15487;BME280;7845;53.698;10.078;2023-02-04T04:21:14;106533.78;;;3.18;nan
15487;BME280;7845;53.698;10.078;2023-02-04T04:23:39;106519.22;;;3.11;nan
15487;BME280;7845;53.698;10.078;2023-02-04T04:26:04;106533.66;;;3.02;nan
15487;BME280;7845;53.698;10.078;2023-02-04T04:28:29;106551.34;;;3.06;nan
15487;BME280;7845;53.698;10.078;2023-02-04T04:30:55;106574.03;;;3.09;nan
15487;BME280;7845;53.698;10.078;2023-02-04T04:33:20;106532.75;;;3.02;nan
15487;BME280;7845;53.698;10.078;2023-02-04T04:35:45;106536.66;;;2.98;nan
15487;BME280;7845;53.698;10.078;2023-02-04T04:38:11;106542.72;;;2.99;nan
15487;BME280;7845;53.698;10.078;2023-02-04T04:40:36;106533.66;;;3.02;nan
15487;BME280;7845;53.698;10.078;2023-02-04T04:43:02;106519.09;;;3.03;nan
15487;BME280;7845;53.698;10.078;2023-02-04T04:45:28;106517.22;;;3.09;nan
15487;BME280;7845;53.698;10.078;2023-02-04T04:47:53;106491.25;;;3.07;nan
15487;BME280;7845;53.698;10.078;2023-02-04T04:50:18;106505.94;;;3.15;nan
15487;BME280;7845;53.698;10.078;2023-02-04T04:52:44;106498.53;;;3.18;nan
15487;BME280;7845;53.698;10.078;2023-02-04T04:55:09;106476.09;;;3.10;nan
15487;BME280;7845;53.698;10.078;2023-02-04T04:57:35;106490.94;;;3.27;nan
15487;BME280;7845;53.698;10.078;2023-02-04T05:00:00;106499.34;;;3.40;nan
15487;BME280;7845;53.698;10.078;2023-02-04T05:02:25;106463.78;;;3.53;nan
15487;BME280;7845;53.698;10.078;2023-02-04T05:04:50;106432.53;;;3.59;nan
15487;BME280;7845;53.698;10.078;2023-02-04T05:07:16;106406.06;;;3.68;nan
15487;BME280;7845;53.698;10.078;2023-02-04T05:09:41;106372.66;;;3.70;nan
15487;BME280;7845;53.698;10.078;2023-02-04T05:12:06;106335.22;;;3.66;nan
15487;BME280;7845;53.698;10.078;2023-02-04T05:14:32;106306.19;;;3.69;nan
15487;BME280;7845;53.698;10.078;2023-02-04T05:16:57;106293.88;;;3.66;nan
15487;BME280;7845;53.698;10.078;2023-02-04T05:19:22;106267.28;;;3.67;nan
15487;BME280;7845;53.698;10.078;2023-02-04T05:21:48;106234.34;;;3.42;nan
15487;BME280;7845;53.698;10.078;2023-02-04T05:24:13;106191.41;;;3.20;nan
15487;BME280;7845;53.698;10.078;2023-02-04T05:26:38;106175.50;;;3.08;nan
15487;BME280;7845;53.698;10.078;2023-02-04T05:29:04;106130.22;;;3.03;nan
15487;BME280;7845;53.698;10.078;2023-02-04T05:31:30;106077.91;;;2.97;nan
15487;BME280;7845;53.698;10.078;2023-02-04T05:33:55;106019.47;;;2.98;nan
15487;BME280;7845;53.698;10.078;2023-02-04T05:36:20;105970.31;;;3.05;nan
15487;BME280;7845;53.698;10.078;2023-02-04T05:38:46;105918.59;;;3.12;nan
15487;BME280;7845;53.698;10.078;2023-02-04T05:41:11;105902.50;;;3.14;nan
15487;BME280;7845;53.698;10.078;2023-02-04T05:43:37;105878.94;;;3.11;nan
15487;BME280;7845;53.698;10.078;2023-02-04T05:46:03;105852.34;;;3.04;nan
15487;BME280;7845;53.698;10.078;2023-02-04T05:48:28;105801.06;;;2.83;nan
15487;BME280;7845;53.698;10.078;2023-02-04T05:50:54;105752.78;;;2.57;nan
15487;BME280;7845;53.698;10.078;2023-02-04T05:53:19;105714.28;;;2.35;nan
15487;BME280;7845;53.698;10.078;2023-02-04T05:55:44;105681.75;;;2.19;nan
15487;BME280;7845;53.698;10.078;2023-02-04T05:58:09;105644.69;;;2.10;nan
15487;BME280;7845;53.698;10.078;2023-02-04T06:00:35;105606.28;;;1.96;nan
15487;BME280;7845;53.698;10.078;2023-02-04T06:03:00;105561.22;;;1.93;nan
15487;BME280;7845;53.698;10.078;2023-02-04T06:05:25;105531.34;;;1.86;nan
15487;BME280;7845;53.698;10.078;2023-02-04T06:07:51;105510.25;;;1.82;nan
15487;BME280;7845;53.698;10.078;2023-02-04T06:10:16;105458.56;;;1.80;nan
15487;BME280;7845;53.698;10.078;2023-02-04T06:12:41;105435.41;;;1.89;nan
15487;BME280;7845;53.698;10.078;2023-02-04T06:15:07;105411.59;;;1.83;nan
15487;BME280;7845;53.698;10.078;2023-02-04T06:17:33;105409.19;;;1.84;nan
15487;BME280;7845;53.698;10.078;2023-02-04T06:19:58;105401.75;;;1.79;nan
15487;BME280;7845;53.698;10.078;2023-02-04T06:22:23;105392.94;;;1.77;nan
15487;BME280;7845;53.698;10.078;2023-02-04T06:24:50;105389.94;;;1.81;nan
15487;BME280;7845;53.698;10.078;2023-02-04T06:27:15;105375.22;;;1.71;nan
15487;BME280;7845;53.698;10.078;2023-02-04T06:29:48;105359.63;;;1.70;nan
15487;BME280;7845;53.698;10.078;2023-02-04T06:32:13;105352.00;;;1.62;nan
15487;BME280;7845;53.698;10.078;2023-02-04T06:34:39;105326.25;;;1.54;nan
15487;BME280;7845;53.698;10.078;2023-02-04T06:37:04;105313.94;;;1.43;nan
15487;BME280;7845;53.698;10.078;2023-02-04T06:39:29;105318.34;;;1.52;nan
15487;BME280;7845;53.698;10.078;2023-02-04T06:41:54;105307.28;;;1.53;nan
15487;BME280;7845;53.698;10.078;2023-02-04T06:44:20;105274.13;;;1.56;nan
15487;BME280;7845;53.698;10.078;2023-02-04T06:46:45;105272.63;;;1.58;nan
15487;BME280;7845;53.698;10.078;2023-02-04T06:49:11;105256.13;;;1.56;nan
15487;BME280;7845;53.698;10.078;2023-02-04T06:51:36;105238.41;;;1.59;nan
15487;BME280;7845;53.698;10.078;2023-02-04T06:54:01;105205.06;;;1.52;nan
15487;BME280;7845;53.698;10.078;2023-02-04T06:56:26;105168.09;;;1.35;nan
15487;BME280;7845;53.698;10.078;2023-02-04T06:58:53;105155.41;;;1.45;nan
15487;BME280;7845;53.698;10.078;2023-02-04T07:01:19;105127.09;;;1.45;nan
15487;BME280;7845;53.698;10.078;2023-02-04T07:03:44;105111.34;;;1.50;nan
15487;BME280;7845;53.698;10.078;2023-02-04T07:06:09;105091.47;;;1.49;nan
15487;BME280;7845;53.698;10.078;2023-02-04T07:08:34;105077.13;;;1.51;nan
15487;BME280;7845;53.698;10.078;2023-02-04T07:11:00;105060.59;;;1.49;nan
15487;BME280;7845;53.698;10.078;2023-02-04T07:13:25;105040.31;;;1.61;nan
15487;BME280;7845;53.698;10.078;2023-02-04T07:15:50;105030.31;;;1.64;nan
15487;BME280;7845;53.698;10.078;2023-02-04T07:18:17;104996.53;;;1.61;nan
15487;BME280;7845;53.698;10.078;2023-02-04T07:20:44;104971.38;;;1.67;nan
15487;BME280;7845;53.698;10.078;2023-02-04T07:23:09;104954.81;;;1.74;nan
15487;BME280;7845;53.698;10.078;2023-02-04T07:25:35;104938.78;;;1.76;nan
15487;BME280;7845;53.698;10.078;2023-02-04T07:28:00;104924.13;;;1.66;nan
15487;BME280;7845;53.698;10.078;2023-02-04T07:30:28;104923.63;;;1.71;nan
15487;BME280;7845;53.698;10.078;2023-02-04T07:32:53;104931.97;;;1.68;nan
15487;BME280;7845;53.698;10.078;2023-02-04T07:35:18;104927.41;;;1.74;nan
15487;BME280;7845;53.698;10.078;2023-02-04T07:37:43;104909.44;;;1.65;nan
15487;BME280;7845;53.698;10.078;2023-02-04T07:40:10;104901.69;;;1.65;nan
15487;BME280;7845;53.698;10.078;2023-02-04T07:42:39;104898.34;;;1.75;nan
15487;BME280;7845;53.698;10.078;2023-02-04T07:45:04;104884.22;;;1.80;nan
15487;BME280;7845;53.698;10.078;2023-02-04T07:47:30;104880.81;;;1.90;nan
15487;BME280;7845;53.698;10.078;2023-02-04T07:49:55;104872.69;;;2.04;nan
15487;BME280;7845;53.698;10.078;2023-02-04T07:52:24;104867.72;;;2.05;nan
15487;BME280;7845;53.698;10.078;2023-02-04T07:54:50;104853.63;;;2.02;nan
15487;BME280;7845;53.698;10.078;2023-02-04T07:57:17;104842.56;;;2.03;nan
15487;BME280;7845;53.698;10.078;2023-02-04T07:59:43;104849.03;;;2.08;nan
15487;BME280;7845;53.698;10.078;2023-02-04T08:02:09;104839.66;;;2.08;nan
15487;BME280;7845;53.698;10.078;2023-02-04T08:04:34;104821.38;;;2.15;nan
15487;BME280;7845;53.698;10.078;2023-02-04T08:07:00;104804.53;;;2.19;nan
15487;BME280;7845;53.698;10.078;2023-02-04T08:09:25;104790.66;;;2.27;nan
15487;BME280;7845;53.698;10.078;2023-02-04T08:11:51;104780.16;;;2.34;nan
15487;BME280;7845;53.698;10.078;2023-02-04T08:14:17;104787.16;;;2.45;nan
15487;BME280;7845;53.698;10.078;2023-02-04T08:16:42;104771.31;;;2.41;nan
15487;BME280;7845;53.698;10.078;2023-02-04T08:19:08;104760.00;;;2.49;nan
15487;BME280;7845;53.698;10.078;2023-02-04T08:21:33;104743.84;;;2.41;nan
15487;BME280;7845;53.698;10.078;2023-02-04T08:23:58;104745.16;;;2.46;nan
15487;BME280;7845;53.698;10.078;2023-02-04T08:26:23;104737.97;;;2.52;nan
15487;BME280;7845;53.698;10.078;2023-02-04T08:28:49;104739.97;;;2.65;nan
15487;BME280;7845;53.698;10.078;2023-02-04T08:31:14;104741.41;;;2.71;nan
15487;BME280;7845;53.698;10.078;2023-02-04T08:33:39;104741.81;;;2.76;nan
15487;BME280;7845;53.698;10.078;2023-02-04T08:36:06;104766.31;;;2.81;nan
15487;BME280;7845;53.698;10.078;2023-02-04T08:38:31;104797.44;;;2.83;nan
15487;BME280;7845;53.698;10.078;2023-02-04T08:40:57;104804.78;;;2.88;nan
15487;BME280;7845;53.698;10.078;2023-02-04T08:43:24;104824.94;;;2.92;nan
15487;BME280;7845;53.698;10.078;2023-02-04T08:45:49;104828.56;;;2.94;nan
15487;BME280;7845;53.698;10.078;2023-02-04T08:48:14;104848.34;;;3.04;nan
15487;BME280;7845;53.698;10.078;2023-02-04T08:50:40;104845.41;;;3.09;nan
15487;BME280;7845;53.698;10.078;2023-02-04T08:53:05;104845.25;;;3.08;nan
15487;BME280;7845;53.698;10.078;2023-02-04T08:55:30;104860.88;;;3.09;nan
15487;BME280;7845;53.698;10.078;2023-02-04T08:57:56;104873.31;;;3.23;nan
15487;BME280;7845;53.698;10.078;2023-02-04T09:00:23;104869.56;;;3.20;nan
15487;BME280;7845;53.698;10.078;2023-02-04T09:02:48;104879.66;;;3.27;nan
15487;BME280;7845;53.698;10.078;2023-02-04T09:05:14;104909.56;;;3.54;nan
15487;BME280;7845;53.698;10.078;2023-02-04T09:07:39;104897.53;;;3.44;nan
15487;BME280;7845;53.698;10.078;2023-02-04T09:10:04;104900.00;;;3.53;nan
15487;BME280;7845;53.698;10.078;2023-02-04T09:12:30;104889.97;;;3.66;nan
15487;BME280;7845;53.698;10.078;2023-02-04T09:14:55;104874.22;;;3.63;nan
15487;BME280;7845;53.698;10.078;2023-02-04T09:17:20;104869.84;;;3.72;nan
15487;BME280;7845;53.698;10.078;2023-02-04T09:19:46;104857.28;;;3.56;nan
15487;BME280;7845;53.698;10.078;2023-02-04T09:22:11;104856.34;;;3.56;nan
15487;BME280;7845;53.698;10.078;2023-02-04T09:24:37;104852.91;;;3.55;nan
15487;BME280;7845;53.698;10.078;2023-02-04T09:27:02;104857.03;;;3.73;nan
15487;BME280;7845;53.698;10.078;2023-02-04T09:29:28;104852.13;;;3.76;nan
15487;BME280;7845;53.698;10.078;2023-02-04T09:31:53;104833.03;;;3.84;nan
15487;BME280;7845;53.698;10.078;2023-02-04T09:34:18;104809.63;;;3.83;nan
15487;BME280;7845;53.698;10.078;2023-02-04T09:36:44;104787.94;;;3.81;nan
15487;BME280;7845;53.698;10.078;2023-02-04T09:39:09;104781.06;;;3.91;nan
15487;BME280;7845;53.698;10.078;2023-02-04T09:41:37;104759.38;;;3.89;nan
15487;BME280;7845;53.698;10.078;2023-02-04T09:44:04;104739.47;;;3.88;nan
15487;BME280;7845;53.698;10.078;2023-02-04T09:46:34;104710.53;;;3.92;nan
15487;BME280;7845;53.698;10.078;2023-02-04T09:48:59;104695.53;;;3.99;nan
15487;BME280;7845;53.698;10.078;2023-02-04T09:51:27;104688.28;;;4.05;nan
15487;BME280;7845;53.698;10.078;2023-02-04T09:53:57;104647.34;;;3.99;nan
15487;BME280;7845;53.698;10.078;2023-02-04T09:56:25;104627.56;;;4.00;nan
15487;BME280;7845;53.698;10.078;2023-02-04T09:58:50;104613.56;;;4.08;nan
15487;BME280;7845;53.698;10.078;2023-02-04T10:01:17;104582.78;;;4.11;nan
15487;BME280;7845;53.698;10.078;2023-02-04T10:03:44;104578.94;;;4.27;nan
15487;BME280;7845;53.698;10.078;2023-02-04T10:06:15;104557.84;;;4.11;nan
15487;BME280;7845;53.698;10.078;2023-02-04T10:08:42;104546.13;;;4.26;nan
15487;BME280;7845;53.698;10.078;2023-02-04T10:11:08;104541.72;;;4.47;nan
15487;BME280;7845;53.698;10.078;2023-02-04T10:13:37;104525.06;;;4.43;nan
15487;BME280;7845;53.698;10.078;2023-02-04T10:16:14;104522.28;;;4.52;nan
15487;BME280;7845;53.698;10.078;2023-02-04T10:18:40;104512.78;;;4.63;nan
15487;BME280;7845;53.698;10.078;2023-02-04T10:21:34;104488.22;;;4.58;nan
15487;BME280;7845;53.698;10.078;2023-02-04T10:24:03;104464.97;;;4.69;nan
15487;BME280;7845;53.698;10.078;2023-02-04T10:26:30;104455.19;;;4.77;nan
15487;BME280;7845;53.698;10.078;2023-02-04T10:29:11;104433.03;;;4.69;nan
15487;BME280;7845;53.698;10.078;2023-02-04T10:31:42;104422.56;;;4.67;nan
15487;BME280;7845;53.698;10.078;2023-02-04T10:36:36;104415.94;;;4.94;nan
15487;BME280;7845;53.698;10.078;2023-02-04T10:39:03;104407.50;;;4.96;nan
15487;BME280;7845;53.698;10.078;2023-02-04T10:41:29;104402.28;;;5.20;nan
15487;BME280;7845;53.698;10.078;2023-02-04T10:44:08;104382.94;;;5.15;nan
15487;BME280;7845;53.698;10.078;2023-02-04T10:46:34;104369.59;;;5.45;nan
15487;BME280;7845;53.698;10.078;2023-02-04T10:49:02;104328.94;;;5.44;nan
15487;BME280;7845;53.698;10.078;2023-02-04T10:51:28;104326.28;;;5.55;nan
15487;BME280;7845;53.698;10.078;2023-02-04T10:53:53;104323.91;;;5.70;nan
15487;BME280;7845;53.698;10.078;2023-02-04T10:56:37;104310.72;;;5.67;nan
15487;BME280;7845;53.698;10.078;2023-02-04T10:59:03;104316.53;;;5.88;nan
15487;BME280;7845;53.698;10.078;2023-02-04T11:01:28;104323.34;;;5.63;nan
15487;BME280;7845;53.698;10.078;2023-02-04T11:03:55;104317.53;;;5.78;nan
15487;BME280;7845;53.698;10.078;2023-02-04T11:06:22;104315.94;;;5.80;nan
15487;BME280;7845;53.698;10.078;2023-02-04T11:08:48;104304.81;;;6.19;nan
15487;BME280;7845;53.698;10.078;2023-02-04T11:11:23;104306.69;;;6.08;nan
15487;BME280;7845;53.698;10.078;2023-02-04T11:19:02;104296.78;;;5.90;nan
15487;BME280;7845;53.698;10.078;2023-02-04T11:26:43;104304.25;;;5.85;nan
15487;BME280;7845;53.698;10.078;2023-02-04T11:31:44;104298.50;;;5.78;nan
15487;BME280;7845;53.698;10.078;2023-02-04T11:39:31;104279.06;;;6.22;nan
15487;BME280;7845;53.698;10.078;2023-02-04T11:41:58;104288.25;;;6.30;nan
15487;BME280;7845;53.698;10.078;2023-02-04T11:44:24;104288.66;;;6.36;nan
15487;BME280;7845;53.698;10.078;2023-02-04T11:46:51;104283.06;;;6.96;nan
15487;BME280;7845;53.698;10.078;2023-02-04T11:49:19;104288.91;;;7.06;nan
15487;BME280;7845;53.698;10.078;2023-02-04T11:51:46;104282.59;;;7.44;nan
15487;BME280;7845;53.698;10.078;2023-02-04T11:54:13;104285.00;;;7.68;nan
15487;BME280;7845;53.698;10.078;2023-02-04T11:56:40;104302.78;;;7.48;nan
15487;BME280;7845;53.698;10.078;2023-02-04T11:59:08;104300.66;;;7.28;nan
15487;BME280;7845;53.698;10.078;2023-02-04T12:01:35;104307.72;;;7.43;nan
15487;BME280;7845;53.698;10.078;2023-02-04T12:04:02;104307.28;;;7.22;nan
15487;BME280;7845;53.698;10.078;2023-02-04T12:06:31;104302.44;;;6.88;nan
15487;BME280;7845;53.698;10.078;2023-02-04T12:09:24;104298.44;;;6.40;nan
15487;BME280;7845;53.698;10.078;2023-02-04T12:12:01;104310.97;;;6.08;nan
15487;BME280;7845;53.698;10.078;2023-02-04T12:14:35;104306.63;;;5.71;nan
15487;BME280;7845;53.698;10.078;2023-02-04T12:17:14;104310.75;;;5.31;nan
15487;BME280;7845;53.698;10.078;2023-02-04T12:19:40;104295.28;;;5.69;nan
15487;BME280;7845;53.698;10.078;2023-02-04T12:22:05;104307.75;;;5.74;nan
15487;BME280;7845;53.698;10.078;2023-02-04T12:24:30;104302.56;;;5.74;nan
15487;BME280;7845;53.698;10.078;2023-02-04T12:26:56;104309.28;;;5.59;nan
15487;BME280;7845;53.698;10.078;2023-02-04T12:29:21;104315.91;;;5.42;nan
15487;BME280;7845;53.698;10.078;2023-02-04T12:31:46;104315.81;;;5.29;nan
15487;BME280;7845;53.698;10.078;2023-02-04T12:34:11;104315.81;;;5.29;nan
15487;BME280;7845;53.698;10.078;2023-02-04T12:36:37;104322.72;;;5.17;nan
15487;BME280;7845;53.698;10.078;2023-02-04T12:39:02;104315.81;;;5.29;nan
15487;BME280;7845;53.698;10.078;2023-02-04T12:41:27;104315.25;;;5.33;nan
15487;BME280;7845;53.698;10.078;2023-02-04T12:43:53;104326.03;;;5.39;nan
15487;BME280;7845;53.698;10.078;2023-02-04T12:46:20;104324.13;;;5.37;nan
15487;BME280;7845;53.698;10.078;2023-02-04T12:48:45;104321.38;;;5.47;nan
15487;BME280;7845;53.698;10.078;2023-02-04T12:51:10;104327.47;;;5.47;nan
15487;BME280;7845;53.698;10.078;2023-02-04T12:53:36;104331.75;;;5.47;nan
15487;BME280;7845;53.698;10.078;2023-02-04T12:56:01;104328.22;;;5.58;nan
15487;BME280;7845;53.698;10.078;2023-02-04T12:58:26;104333.28;;;5.56;nan
15487;BME280;7845;53.698;10.078;2023-02-04T13:00:52;104338.91;;;5.63;nan
15487;BME280;7845;53.698;10.078;2023-02-04T13:03:17;104331.75;;;5.72;nan
15487;BME280;7845;53.698;10.078;2023-02-04T13:05:43;104333.63;;;5.61;nan
15487;BME280;7845;53.698;10.078;2023-02-04T13:08:08;104328.16;;;6.06;nan
15487;BME280;7845;53.698;10.078;2023-02-04T13:10:33;104332.63;;;6.08;nan
15487;BME280;7845;53.698;10.078;2023-02-04T13:12:59;104339.50;;;6.08;nan
15487;BME280;7845;53.698;10.078;2023-02-04T13:15:25;104342.94;;;6.20;nan
15487;BME280;7845;53.698;10.078;2023-02-04T13:17:50;104346.44;;;6.21;nan
15487;BME280;7845;53.698;10.078;2023-02-04T13:20:16;104325.34;;;6.16;nan
15487;BME280;7845;53.698;10.078;2023-02-04T13:22:41;104312.41;;;6.29;nan
15487;BME280;7845;53.698;10.078;2023-02-04T13:25:07;104305.13;;;6.76;nan
15487;BME280;7845;53.698;10.078;2023-02-04T13:27:34;104303.97;;;6.71;nan
15487;BME280;7845;53.698;10.078;2023-02-04T13:30:00;104298.88;;;6.59;nan
15487;BME280;7845;53.698;10.078;2023-02-04T13:32:25;104295.34;;;6.46;nan
15487;BME280;7845;53.698;10.078;2023-02-04T13:34:50;104290.88;;;6.56;nan
15487;BME280;7845;53.698;10.078;2023-02-04T13:37:16;104290.50;;;6.50;nan